Time;durP1;ratioP1;P1;durP2;ratioP2;P2;SDS_P1;SDS_P2;PMS_P1;PMS_P2;Temp;Humidity;BMP_temperature;BMP_pressure;BME280_temperature;BME280_humidity;BME280_pressure;Samples;Min_cycle;Max_cycle;Signal;HPM_P1;HPM_P2
2020/12/10 00:00:11;;;;;;;138.18;57.78;;;;;;;8.26;100.00;96339.84;4987786;28;20402;-61
2020/12/10 00:02:36;;;;;;;223.32;92.60;;;;;;;8.40;100.00;96353.84;4986430;28;20574;-62
2020/12/10 00:05:04;;;;;;;183.13;78.97;;;;;;;8.37;100.00;96357.34;4987806;28;20034;-62
2020/12/10 00:07:29;;;;;;;143.15;61.80;;;;;;;8.49;100.00;96359.88;4986253;28;20046;-63
2020/12/10 00:09:55;;;;;;;129.80;58.47;;;;;;;8.15;100.00;96312.09;4988302;28;20041;-63
2020/12/10 00:12:21;;;;;;;138.32;57.90;;;;;;;8.15;100.00;96308.53;4987458;28;20030;-62
2020/12/10 00:14:47;;;;;;;127.38;56.50;;;;;;;8.46;100.00;96350.38;4986185;28;20632;-61
2020/12/10 00:17:12;;;;;;;126.53;56.20;;;;;;;8.51;100.00;96352.00;4985090;28;20136;-62
2020/12/10 00:19:40;;;;;;;124.82;53.88;;;;;;;8.48;100.00;96344.50;4987841;28;20082;-63
2020/12/10 00:22:08;;;;;;;111.45;42.00;;;;;;;8.40;100.00;96323.47;4985952;28;20137;-62
2020/12/10 00:24:33;;;;;;;108.70;45.65;;;;;;;8.42;100.00;96323.91;4987818;28;20054;-61
2020/12/10 00:26:59;;;;;;;132.48;54.03;;;;;;;7.93;100.00;96245.97;4985885;28;20045;-61
2020/12/10 00:29:24;;;;;;;149.98;49.70;;;;;;;8.51;100.00;96325.22;4986218;28;20039;-61
2020/12/10 00:31:50;;;;;;;141.15;51.10;;;;;;;8.54;100.00;96320.91;4987487;28;20097;-62
2020/12/10 00:34:15;;;;;;;225.00;62.53;;;;;;;7.74;100.00;96214.56;4987242;28;20053;-62
2020/12/10 00:36:41;;;;;;;144.05;54.58;;;;;;;8.23;100.00;96313.00;4987897;28;20065;-62
2020/12/10 00:39:06;;;;;;;164.77;51.03;;;;;;;7.95;100.00;96236.13;4987875;28;20038;-62
2020/12/10 00:41:32;;;;;;;146.05;50.58;;;;;;;8.56;100.00;96326.84;4987047;28;20038;-62
2020/12/10 00:43:57;;;;;;;137.27;49.78;;;;;;;8.16;100.00;96285.28;4987647;28;20030;-61
2020/12/10 00:46:23;;;;;;;158.48;50.50;;;;;;;8.65;100.00;96335.63;4985417;28;20430;-62
2020/12/10 00:48:48;;;;;;;156.55;50.35;;;;;;;8.19;100.00;96303.88;4987170;28;20394;-62
2020/12/10 00:51:13;;;;;;;156.45;51.53;;;;;;;8.57;100.00;96333.94;4987281;28;20034;-61
2020/12/10 00:53:39;;;;;;;183.93;53.72;;;;;;;7.93;100.00;96240.44;4987080;28;20545;-61
2020/12/10 00:56:04;;;;;;;199.80;53.45;;;;;;;8.48;100.00;96337.00;4985502;28;20077;-62
2020/12/10 00:58:30;;;;;;;216.57;53.33;;;;;;;8.27;100.00;96277.97;4987376;28;20042;-61
2020/12/10 01:00:55;;;;;;;161.00;49.83;;;;;;;8.62;100.00;96336.41;4986569;28;20100;-63
2020/12/10 01:03:21;;;;;;;176.68;51.45;;;;;;;8.59;100.00;96342.66;4987065;28;20142;-63
2020/12/10 01:05:46;;;;;;;253.80;55.15;;;;;;;8.58;100.00;96330.03;4981687;28;20039;-62
2020/12/10 01:08:12;;;;;;;157.60;50.33;;;;;;;8.23;100.00;96291.75;4967291;28;20092;-62
2020/12/10 01:10:38;;;;;;;157.77;51.40;;;;;;;8.56;100.00;96332.38;4967196;28;20510;-61
2020/12/10 01:13:04;;;;;;;203.45;52.55;;;;;;;8.55;100.00;96336.31;4967668;28;20042;-63
2020/12/10 01:15:29;;;;;;;221.73;52.67;;;;;;;8.72;100.00;96336.53;4966907;28;20066;-62
2020/12/10 01:17:55;;;;;;;202.70;51.10;;;;;;;8.73;100.00;96343.66;4965422;28;20035;-61
2020/12/10 01:20:20;;;;;;;174.98;52.35;;;;;;;8.73;100.00;96318.00;4966832;28;20526;-62
2020/12/10 01:22:46;;;;;;;202.35;56.95;;;;;;;8.60;100.00;96311.16;4966999;28;20035;-61
2020/12/10 01:25:12;;;;;;;189.63;44.10;;;;;;;8.27;100.00;96258.66;4967027;28;20031;-61
2020/12/10 01:27:37;;;;;;;193.63;55.15;;;;;;;8.59;100.00;96287.47;4965758;28;20399;-62
2020/12/10 01:30:05;;;;;;;217.55;61.63;;;;;;;8.68;100.00;96307.28;4981514;28;20414;-62
2020/12/10 01:32:30;;;;;;;222.95;62.97;;;;;;;8.70;100.00;96305.75;4966946;28;20077;-63
2020/12/10 01:34:56;;;;;;;186.05;59.40;;;;;;;8.72;100.00;96297.91;4965187;28;20605;-62
2020/12/10 01:37:21;;;;;;;286.48;69.03;;;;;;;8.50;100.00;96257.41;4981147;28;20035;-62
2020/12/10 01:39:47;;;;;;;344.00;74.15;;;;;;;8.72;100.00;96275.00;4967145;28;20383;-63
2020/12/10 01:42:13;;;;;;;242.60;67.60;;;;;;;8.24;100.00;96204.25;4966494;28;20031;-62
2020/12/10 01:44:39;;;;;;;298.55;72.50;;;;;;;8.32;100.00;96208.66;4965334;28;20039;-62
2020/12/10 01:47:06;;;;;;;230.77;64.75;;;;;;;8.82;100.00;96274.34;4966436;28;20041;-61
2020/12/10 01:49:34;;;;;;;230.38;70.70;;;;;;;8.85;100.00;96270.81;4966972;28;20530;-62
2020/12/10 01:52:00;;;;;;;241.50;78.68;;;;;;;8.73;100.00;96248.97;4967097;28;20034;-62
2020/12/10 01:54:25;;;;;;;242.32;79.65;;;;;;;8.69;100.00;96231.59;4986341;28;20096;-61
2020/12/10 01:56:55;;;;;;;290.20;90.10;;;;;;;3.18;100.00;95366.94;4985547;28;20413;-62
2020/12/10 01:59:22;;;;;;;267.13;85.60;;;;;;;8.79;100.00;96237.22;4984526;28;20042;-62
2020/12/10 02:01:47;;;;;;;265.23;88.13;;;;;;;8.90;100.00;96262.97;4984033;28;20034;-61
2020/12/10 02:04:27;;;;;;;281.08;81.13;;;;;;;8.92;100.00;96254.31;4984129;28;20417;-62
2020/12/10 02:06:53;;;;;;;255.55;77.78;;;;;;;8.50;100.00;96179.34;4986187;28;20018;-62
2020/12/10 02:09:19;;;;;;;225.85;72.28;;;;;;;9.13;100.00;96251.78;4984426;28;20034;-61
2020/12/10 02:11:44;;;;;;;202.00;64.50;;;;;;;9.12;100.00;96250.16;4985685;28;20026;-62
2020/12/10 02:14:10;;;;;;;216.23;69.30;;;;;;;9.00;100.00;96225.59;4986055;28;20045;-61
2020/12/10 02:16:36;;;;;;;204.65;67.78;;;;;;;9.05;100.00;96241.81;4984058;28;20088;-60
2020/12/10 02:19:02;;;;;;;327.50;79.07;;;;;;;9.15;100.00;96235.63;4985609;28;20038;-62
2020/12/10 02:21:27;;;;;;;246.77;68.07;;;;;;;9.12;100.00;96228.88;4984080;28;20515;-60
2020/12/10 02:23:54;;;;;;;177.38;61.10;;;;;;;9.03;100.00;96236.69;4984300;28;20478;-60
2020/12/10 02:26:24;;;;;;;182.02;65.95;;;;;;;8.50;100.00;96157.25;4985594;28;20031;-62
2020/12/10 02:28:50;;;;;;;211.20;78.50;;;;;;;9.09;100.00;96209.50;4985873;28;20077;-62
2020/12/10 02:31:29;;;;;;;204.85;74.55;;;;;;;8.92;100.00;96199.06;4983717;28;20100;-62
2020/12/10 02:34:06;;;;;;;174.77;61.15;;;;;;;9.07;100.00;96245.00;4983817;28;20048;-61
2020/12/10 02:36:33;;;;;;;256.50;111.47;;;;;;;8.64;100.00;96174.75;4985043;28;20092;-63
2020/12/10 02:39:00;;;;;;;180.98;72.75;;;;;;;9.09;100.00;96239.88;4983400;28;20039;-61
2020/12/10 02:41:25;;;;;;;206.02;77.20;;;;;;;8.63;100.00;96178.69;4983638;28;20035;-61
2020/12/10 02:43:51;;;;;;;170.15;69.18;;;;;;;9.16;100.00;96234.44;4985612;28;20092;-61
2020/12/10 02:46:17;;;;;;;183.50;69.85;;;;;;;9.18;100.00;96227.34;4983472;28;20026;-62
2020/12/10 02:48:42;;;;;;;217.68;97.15;;;;;;;8.93;100.00;96206.22;4985286;28;20532;-61
2020/12/10 02:51:08;;;;;;;229.73;92.65;;;;;;;8.83;100.00;96207.69;4984982;28;20026;-62
2020/12/10 02:53:35;;;;;;;177.63;64.45;;;;;;;9.01;100.00;96243.75;4983408;28;20039;-61
2020/12/10 02:56:00;;;;;;;181.75;59.33;;;;;;;8.93;100.00;96245.66;4985257;28;20088;-62
2020/12/10 02:58:26;;;;;;;177.20;65.00;;;;;;;8.80;100.00;96216.69;4983902;28;20034;-61
2020/12/10 03:00:51;;;;;;;169.52;67.70;;;;;;;8.54;100.00;96152.56;4983289;28;20045;-61
2020/12/10 03:03:17;;;;;;;157.82;57.22;;;;;;;8.95;100.00;96223.97;4983430;28;20038;-61
2020/12/10 03:05:43;;;;;;;145.55;48.90;;;;;;;8.91;100.00;96222.34;4983525;28;20026;-62
2020/12/10 03:08:12;;;;;;;148.00;51.00;;;;;;;8.77;100.00;96211.94;4983756;28;20045;-61
2020/12/10 03:10:38;;;;;;;165.70;60.15;;;;;;;8.82;100.00;96210.84;4983463;28;20472;-62
2020/12/10 03:13:04;;;;;;;150.98;53.58;;;;;;;8.70;100.00;96180.72;4983438;28;20042;-61
2020/12/10 03:15:29;;;;;;;200.32;58.03;;;;;;;8.40;100.00;96163.44;4983123;28;20067;-61
2020/12/10 03:17:55;;;;;;;447.58;65.78;;;;;;;8.58;100.00;96165.22;4985203;28;20042;-61
2020/12/10 03:20:21;;;;;;;439.23;59.13;;;;;;;8.78;100.00;96210.78;4983071;28;20461;-61
2020/12/10 03:22:46;;;;;;;309.75;50.13;;;;;;;8.70;100.00;96222.13;4984865;28;20069;-62
2020/12/10 03:25:12;;;;;;;168.68;41.65;;;;;;;8.61;100.00;96219.69;4983281;28;20647;-62
2020/12/10 03:27:37;;;;;;;118.30;37.70;;;;;;;8.71;100.00;96212.69;4985507;28;20624;-61
2020/12/10 03:30:04;;;;;;;114.03;35.30;;;;;;;8.66;100.00;96215.78;4983537;28;20042;-63
2020/12/10 03:32:29;;;;;;;130.68;36.10;;;;;;;8.64;100.00;96218.94;4984956;28;20575;-61
2020/12/10 03:34:55;;;;;;;157.77;52.90;;;;;;;8.75;100.00;96225.34;4985365;28;20488;-61
2020/12/10 03:37:20;;;;;;;158.25;55.95;;;;;;;8.63;100.00;96224.81;4984866;28;20042;-61
2020/12/10 03:39:46;;;;;;;160.45;52.95;;;;;;;8.12;100.00;96152.06;4983687;28;20039;-61
2020/12/10 03:42:12;;;;;;;189.93;57.10;;;;;;;8.80;100.00;96243.53;4983369;28;20030;-62
2020/12/10 03:44:37;;;;;;;182.48;57.10;;;;;;;8.73;100.00;96216.66;4984738;28;20046;-61
2020/12/10 03:47:03;;;;;;;167.88;57.35;;;;;;;7.51;100.00;96033.94;4984736;28;20032;-61
2020/12/10 03:49:28;;;;;;;149.73;52.83;;;;;;;8.90;100.00;96237.31;4985042;28;20097;-61
2020/12/10 03:51:54;;;;;;;181.80;54.75;;;;;;;8.83;100.00;96242.78;4986473;28;20030;-62
2020/12/10 03:54:19;;;;;;;192.23;54.13;;;;;;;8.53;100.00;96214.44;4988146;28;20100;-61
2020/12/10 03:56:45;;;;;;;202.20;52.17;;;;;;;8.70;100.00;96233.97;4987889;28;20088;-60
2020/12/10 03:59:11;;;;;;;177.10;52.20;;;;;;;8.76;100.00;96231.66;4986685;28;20046;-61
2020/12/10 04:01:36;;;;;;;145.60;49.17;;;;;;;8.78;100.00;96234.84;4986180;28;20483;-61
2020/12/10 04:04:02;;;;;;;150.55;49.42;;;;;;;8.79;100.00;96244.69;4986582;28;20042;-60
2020/12/10 04:06:27;;;;;;;181.30;59.13;;;;;;;7.10;100.00;95980.72;4986466;28;20522;-61
2020/12/10 04:08:53;;;;;;;166.70;60.80;;;;;;;8.89;100.00;96236.53;4986186;28;20142;-61
2020/12/10 04:11:19;;;;;;;179.82;63.35;;;;;;;8.57;100.00;96191.22;4987541;28;20050;-61
2020/12/10 04:13:45;;;;;;;175.80;62.10;;;;;;;8.76;100.00;96242.69;4987641;28;20457;-61
2020/12/10 04:16:11;;;;;;;169.10;63.90;;;;;;;8.47;100.00;96207.69;4985848;28;20086;-61
2020/12/10 04:18:38;;;;;;;202.70;76.72;;;;;;;8.35;100.00;96178.38;4986552;28;20410;-62
2020/12/10 04:21:05;;;;;;;164.18;69.68;;;;;;;8.19;100.00;96146.63;4985645;28;20054;-60
2020/12/10 04:23:30;;;;;;;182.55;69.70;;;;;;;8.82;100.00;96238.44;4986154;28;20064;-60
2020/12/10 04:25:57;;;;;;;245.60;99.40;;;;;;;8.85;100.00;96229.41;4985636;28;20493;-60
2020/12/10 04:28:22;;;;;;;261.50;116.25;;;;;;;8.81;100.00;96223.03;4985867;28;20069;-61
2020/12/10 04:30:48;;;;;;;369.10;137.70;;;;;;;8.83;100.00;96227.03;4985174;28;20030;-61
2020/12/10 04:33:14;;;;;;;416.65;143.52;;;;;;;8.70;100.00;96227.66;4987378;28;20046;-61
2020/12/10 04:35:40;;;;;;;240.18;104.25;;;;;;;8.68;100.00;96235.50;4985690;28;20099;-62
2020/12/10 04:38:06;;;;;;;330.48;118.68;;;;;;;8.69;100.00;96226.06;4985631;28;20421;-61
2020/12/10 04:40:33;;;;;;;281.77;112.85;;;;;;;8.72;100.00;96230.84;4985656;28;20030;-61
2020/12/10 04:43:01;;;;;;;267.45;109.00;;;;;;;8.80;100.00;96240.78;4987188;28;20334;-60
2020/12/10 04:45:26;;;;;;;276.63;114.18;;;;;;;8.93;100.00;96240.13;4985513;28;20037;-61
2020/12/10 04:47:52;;;;;;;287.50;127.55;;;;;;;8.53;100.00;96195.13;4985530;28;20042;-61
2020/12/10 04:50:23;;;;;;;210.40;107.55;;;;;;;8.56;100.00;96189.66;4985929;28;20180;-60
2020/12/10 04:52:50;;;;;;;198.57;89.18;;;;;;;8.83;100.00;96232.53;4987103;28;20042;-61
2020/12/10 04:55:16;;;;;;;200.88;92.80;;;;;;;8.65;100.00;96187.38;4986838;28;20429;-61
2020/12/10 04:57:43;;;;;;;187.68;91.20;;;;;;;8.51;100.00;96175.38;4987057;28;20026;-61
2020/12/10 05:00:09;;;;;;;211.10;96.05;;;;;;;8.46;100.00;96175.72;4985268;28;20042;-61
2020/12/10 05:02:35;;;;;;;195.85;93.20;;;;;;;6.37;100.00;95842.16;4985076;28;20157;-61
2020/12/10 05:05:00;;;;;;;198.35;95.13;;;;;;;8.86;100.00;96253.06;4986851;28;20464;-61
2020/12/10 05:07:39;;;;;;;200.30;99.80;;;;;;;8.86;100.00;96248.34;4986521;28;20088;-61
2020/12/10 05:10:04;;;;;;;213.27;106.18;;;;;;;8.91;100.00;96245.25;4985040;28;20100;-62
2020/12/10 05:12:30;;;;;;;215.15;115.70;;;;;;;8.76;100.00;96234.41;4985412;28;20045;-61
2020/12/10 05:14:55;;;;;;;226.70;113.70;;;;;;;8.75;100.00;96227.31;4985772;28;20045;-61
2020/12/10 05:17:21;;;;;;;204.63;108.70;;;;;;;8.36;100.00;96152.34;4985083;28;21047;-61
2020/12/10 05:19:57;;;;;;;203.20;103.50;;;;;;;9.02;100.00;96245.34;4986920;28;20580;-61
2020/12/10 05:22:23;;;;;;;196.45;99.25;;;;;;;9.11;100.00;96241.09;4985105;28;20050;-61
2020/12/10 05:25:02;;;;;;;260.88;106.03;;;;;;;8.36;100.00;96157.09;4987210;28;20065;-61
2020/12/10 05:27:28;;;;;;;212.63;102.68;;;;;;;8.85;100.00;96232.94;4985149;28;20029;-61
2020/12/10 05:29:54;;;;;;;193.20;97.88;;;;;;;8.74;100.00;96193.38;4985078;28;20545;-61
2020/12/10 05:32:38;;;;;;;214.75;106.60;;;;;;;8.39;100.00;96194.97;4984384;28;20466;-61
2020/12/10 05:35:22;;;;;;;214.50;110.40;;;;;;;8.86;100.00;96236.50;4986281;28;20506;-61
2020/12/10 05:37:49;;;;;;;210.52;103.15;;;;;;;8.55;100.00;96245.22;4986226;28;20034;-61
2020/12/10 05:40:15;;;;;;;217.73;106.05;;;;;;;8.65;100.00;96247.31;4984781;28;20050;-61
2020/12/10 05:42:43;;;;;;;221.68;110.78;;;;;;;8.60;100.00;96211.78;4986123;28;20065;-63
2020/12/10 05:45:16;;;;;;;269.67;127.32;;;;;;;8.53;100.00;96225.50;4986382;28;20034;-61
2020/12/10 05:47:49;;;;;;;269.00;128.43;;;;;;;8.36;100.00;96206.75;4986132;28;20169;-61
2020/12/10 05:50:17;;;;;;;277.05;145.13;;;;;;;8.61;100.00;96246.47;4985995;28;20058;-62
2020/12/10 05:52:54;;;;;;;329.27;168.65;;;;;;;8.67;100.00;96248.53;4984775;28;20038;-61
2020/12/10 05:55:20;;;;;;;290.38;157.18;;;;;;;8.30;100.00;96186.97;4983992;28;20034;-62
2020/12/10 05:57:46;;;;;;;346.38;193.90;;;;;;;8.75;100.00;96258.50;4985869;28;20666;-61
2020/12/10 06:00:11;;;;;;;437.50;250.30;;;;;;;7.85;100.00;96114.69;4984102;28;20026;-62
2020/12/10 06:02:40;;;;;;;411.95;222.23;;;;;;;8.81;100.00;96272.72;4985500;28;20026;-61
2020/12/10 06:05:06;;;;;;;364.10;189.57;;;;;;;8.08;100.00;96173.31;4985739;28;20413;-62
2020/12/10 06:07:31;;;;;;;276.02;144.63;;;;;;;8.07;100.00;96149.63;4983907;28;20096;-62
2020/12/10 06:09:58;;;;;;;297.98;143.95;;;;;;;8.95;100.00;96283.94;4984542;28;20129;-61
2020/12/10 06:12:25;;;;;;;277.85;131.27;;;;;;;8.94;100.00;96298.94;4985682;28;20037;-61
2020/12/10 06:14:55;;;;;;;358.15;157.80;;;;;;;8.24;100.00;96179.41;4983789;28;20038;-61
2020/12/10 06:17:21;;;;;;;423.00;159.93;;;;;;;8.94;100.00;96293.41;4985456;28;20112;-61
2020/12/10 06:19:47;;;;;;;367.23;155.38;;;;;;;8.83;100.00;96265.69;4986015;28;20547;-61
2020/12/10 06:22:33;;;;;;;404.92;154.93;;;;;;;8.99;100.00;96268.22;4985777;28;20057;-60
2020/12/10 06:25:03;;;;;;;445.08;159.70;;;;;;;9.05;100.00;96283.25;4984108;28;20042;-62
2020/12/10 06:27:31;;;;;;;631.30;175.70;;;;;;;9.07;100.00;96253.28;4984035;28;20417;-60
2020/12/10 06:30:11;;;;;;;541.25;150.40;;;;;;;9.12;100.00;96266.75;4986002;28;20034;-61
2020/12/10 06:32:41;;;;;;;603.88;166.10;;;;;;;8.91;100.00;96261.03;4985450;28;20108;-60
2020/12/10 06:35:24;;;;;;;469.27;164.18;;;;;;;8.85;100.00;96259.78;4985410;28;20165;-61
2020/12/10 06:37:49;;;;;;;387.52;157.63;;;;;;;8.87;100.00;96243.59;4985203;28;20030;-61
2020/12/10 06:40:27;;;;;;;499.90;169.15;;;;;;;9.09;100.00;96250.94;4985327;28;20038;-61
2020/12/10 06:42:53;;;;;;;575.60;163.98;;;;;;;9.15;100.00;96255.72;4985446;28;20413;-61
2020/12/10 06:45:30;;;;;;;375.13;150.40;;;;;;;9.13;100.00;96268.34;4983551;28;20038;-61
2020/12/10 06:47:56;;;;;;;384.85;161.85;;;;;;;9.02;100.00;96270.22;4983854;28;20517;-61
2020/12/10 06:50:30;;;;;;;438.83;177.60;;;;;;;8.56;100.00;96188.84;4985384;28;20037;-60
2020/12/10 06:53:17;;;;;;;322.27;148.75;;;;;;;9.15;100.00;96271.53;4983142;28;20042;-59
2020/12/10 06:55:58;;;;;;;452.10;199.05;;;;;;;9.17;100.00;96269.16;4984880;28;20081;-60
2020/12/10 06:58:36;;;;;;;491.15;234.77;;;;;;;7.52;100.00;95986.75;4985123;28;20521;-59
2020/12/10 07:01:26;;;;;;;526.40;242.05;;;;;;;9.30;100.00;96273.25;4984673;28;20581;-59
2020/12/10 07:07:21;;;;;;;516.85;258.20;;;;;;;9.36;100.00;96282.78;4984827;28;20498;-60
2020/12/10 07:09:56;;;;;;;521.22;279.15;;;;;;;9.46;100.00;96282.09;4983686;28;20525;-60
2020/12/10 07:12:24;;;;;;;531.33;293.38;;;;;;;8.94;100.00;96200.31;4983548;28;20030;-59
2020/12/10 07:14:50;;;;;;;587.33;328.80;;;;;;;9.47;100.00;96272.59;4984999;28;20473;-60
2020/12/10 07:17:16;;;;;;;566.80;326.65;;;;;;;9.26;100.00;96239.28;4983279;28;20048;-60
2020/12/10 07:19:41;;;;;;;587.65;334.80;;;;;;;9.39;100.00;96259.91;4983801;28;20030;-61
2020/12/10 07:22:07;;;;;;;525.80;305.48;;;;;;;9.31;100.00;96230.59;4984901;28;20846;-60
2020/12/10 07:24:32;;;;;;;591.13;330.88;;;;;;;9.74;100.00;96259.38;4986001;28;20482;-61
2020/12/10 07:26:58;;;;;;;527.40;293.65;;;;;;;9.86;100.00;96262.66;4977539;28;20079;-59
2020/12/10 07:29:23;;;;;;;609.25;322.15;;;;;;;9.88;100.00;96265.81;4972076;28;20049;-60
2020/12/10 07:31:49;;;;;;;543.50;291.65;;;;;;;9.39;100.00;96182.50;4987938;28;20030;-58
2020/12/10 07:34:15;;;;;;;463.15;258.83;;;;;;;10.08;100.00;96269.97;4988150;28;20042;-59
2020/12/10 07:36:51;;;;;;;460.13;257.08;;;;;;;10.01;100.00;96269.88;4980638;28;20043;-58
2020/12/10 07:39:30;;;;;;;412.65;232.93;;;;;;;10.14;100.00;96273.94;4985401;28;20077;-60
2020/12/10 07:41:57;;;;;;;329.50;195.10;;;;;;;10.22;100.00;96264.50;4985611;28;20104;-58
2020/12/10 07:44:32;;;;;;;149.25;82.68;;;;;;;10.21;100.00;96251.81;4987800;28;20035;-58
2020/12/10 07:46:59;;;;;;;72.45;35.47;;;;;;;10.47;100.00;96261.84;4987095;28;20572;-61
2020/12/10 07:49:25;;;;;;;40.88;23.15;;;;;;;10.67;100.00;96268.66;4986357;28;20038;-58
2020/12/10 07:52:20;;;;;;;27.60;14.30;;;;;;;10.25;100.00;96194.53;4986926;28;20056;-61
2020/12/10 07:54:49;;;;;;;;;;;;;;;10.85;100.00;96265.94;4988651;28;20054;-63
2020/12/10 07:57:42;;;;;;;28.95;13.05;;;;;;;10.91;100.00;96267.19;4987649;28;19917;-62
2020/12/10 08:00:18;;;;;;;26.10;11.57;;;;;;;10.61;100.00;96225.91;4987896;28;20133;-62
2020/12/10 08:02:54;;;;;;;22.50;12.40;;;;;;;10.92;100.00;96268.75;4987959;28;20461;-62
2020/12/10 08:05:20;;;;;;;31.75;16.40;;;;;;;10.93;100.00;96281.41;4988064;28;20217;-61
2020/12/10 08:07:47;;;;;;;33.90;13.57;;;;;;;10.69;100.00;96211.72;4987763;28;20527;-62
2020/12/10 08:10:40;;;;;;;31.98;17.25;;;;;;;11.18;100.00;96271.19;4987863;28;20031;-63
2020/12/10 08:13:13;;;;;;;25.35;11.63;;;;;;;10.86;100.00;96264.78;4987905;28;20057;-64
2020/12/10 08:15:40;;;;;;;35.85;18.08;;;;;;;10.96;100.00;96264.81;4987801;28;20097;-63
2020/12/10 08:18:08;;;;;;;37.25;20.15;;;;;;;9.09;100.00;95958.13;4987861;28;20111;-64
2020/12/10 08:20:43;;;;;;;29.85;16.90;;;;;;;11.17;100.00;96252.97;4987242;28;20058;-63
2020/12/10 08:23:09;;;;;;;38.90;21.67;;;;;;;11.29;100.00;96260.91;4985899;28;20105;-63
2020/12/10 08:25:35;;;;;;;29.02;19.13;;;;;;;11.11;100.00;96210.22;4986262;28;20042;-62
2020/12/10 08:28:03;;;;;;;22.88;13.10;;;;;;;11.35;100.00;96243.50;4986526;28;20043;-63
2020/12/10 08:30:29;;;;;;;23.55;13.45;;;;;;;11.17;100.00;96214.19;4985675;28;20041;-62
2020/12/10 08:32:59;;;;;;;28.40;11.85;;;;;;;11.41;100.00;96252.22;4987598;28;20042;-63
2020/12/10 08:35:26;;;;;;;18.65;10.80;;;;;;;11.42;100.00;96262.13;4987329;28;20057;-62
2020/12/10 08:37:52;;;;;;;14.30;8.45;;;;;;;9.70;100.00;95966.28;4986756;28;20030;-62
2020/12/10 08:40:26;;;;;;;16.48;9.05;;;;;;;11.65;100.00;96273.69;4987071;28;20528;-61
2020/12/10 08:42:52;;;;;;;22.75;11.90;;;;;;;11.68;100.00;96261.78;4986997;28;20026;-62
2020/12/10 08:45:32;;;;;;;20.08;11.15;;;;;;;11.88;100.00;96251.88;4987240;28;20026;-62
2020/12/10 08:47:59;;;;;;;17.98;9.25;;;;;;;11.60;100.00;96237.97;4987330;28;20124;-63
2020/12/10 08:50:28;;;;;;;20.92;11.15;;;;;;;11.01;100.00;96144.47;4985644;28;20088;-62
2020/12/10 08:53:07;;;;;;;17.35;8.23;;;;;;;11.76;100.00;96227.31;4987087;28;20046;-61
2020/12/10 08:55:44;;;;;;;16.83;9.75;;;;;;;11.87;100.00;96233.63;4985811;28;20035;-62
2020/12/10 08:58:27;;;;;;;14.30;8.88;;;;;;;11.62;100.00;96230.03;4985036;28;20049;-63
2020/12/10 09:00:54;;;;;;;13.25;7.88;;;;;;;11.52;100.00;96226.06;4986743;28;20081;-62
2020/12/10 09:03:20;;;;;;;17.50;9.07;;;;;;;11.60;100.00;96237.97;4987592;28;20065;-62
2020/12/10 09:05:46;;;;;;;14.55;8.65;;;;;;;11.62;100.00;96230.03;4986536;28;20050;-62
2020/12/10 09:08:12;;;;;;;15.15;10.52;;;;;;;11.60;100.00;96210.25;4986396;28;20546;-62
2020/12/10 09:10:38;;;;;;;7.40;5.57;;;;;;;11.50;100.00;96200.72;4986756;28;20464;-62
2020/12/10 09:13:04;;;;;;;11.20;7.07;;;;;;;11.48;100.00;96197.56;4986661;28;20038;-63
2020/12/10 09:15:30;;;;;;;16.73;9.02;;;;;;;11.31;100.00;96203.09;4986568;28;20062;-62
2020/12/10 09:17:56;;;;;;;17.90;9.98;;;;;;;11.59;100.00;96230.81;4986517;28;20036;-62
2020/12/10 09:20:23;;;;;;;22.27;11.82;;;;;;;11.55;100.00;96230.03;4986166;28;20102;-63
2020/12/10 09:22:49;;;;;;;22.15;12.18;;;;;;;11.56;100.00;96231.63;4986203;28;20058;-63
2020/12/10 09:25:14;;;;;;;34.70;17.75;;;;;;;11.68;100.00;96236.81;4986299;28;20535;-61
2020/12/10 09:27:40;;;;;;;75.88;30.50;;;;;;;11.60;100.00;96232.44;4985169;28;20084;-61
2020/12/10 09:30:08;;;;;;;62.05;25.92;;;;;;;11.24;100.00;96169.84;4986390;28;20493;-61
2020/12/10 09:32:35;;;;;;;30.33;17.08;;;;;;;11.62;100.00;96224.47;4986237;28;20105;-61
2020/12/10 09:35:04;;;;;;;14.55;7.95;;;;;;;11.74;100.00;96226.91;4985920;28;20027;-68
2020/12/10 09:37:29;;;;;;;15.98;7.82;;;;;;;11.32;100.00;96169.44;4984044;28;20034;-63
2020/12/10 09:39:55;;;;;;;7.57;4.78;;;;;;;11.33;100.00;96179.34;4985884;28;20046;-61
2020/12/10 09:42:20;;;;;;;33.40;20.73;;;;;;;11.31;100.00;96209.44;4983642;28;20097;-61
2020/12/10 09:44:46;;;;;;;11.15;5.70;;;;;;;11.22;100.00;96205.47;4985857;28;20114;-62
2020/12/10 09:47:11;;;;;;;28.63;13.10;;;;;;;11.39;100.00;96215.78;4985468;28;20046;-59
2020/12/10 09:49:37;;;;;;;21.83;16.70;;;;;;;11.28;100.00;96173.41;4981646;28;20053;-59
2020/12/10 09:52:04;;;;;;;28.38;14.32;;;;;;;11.43;100.00;96206.28;4974686;28;20030;-59
2020/12/10 09:57:06;;;;;;;30.88;15.00;;;;;;;11.52;100.00;96219.75;4979374;28;20042;-62
2020/12/10 09:59:34;;;;;;;15.55;7.47;;;;;;;11.16;100.00;96157.16;4986214;28;20096;-62
2020/12/10 10:02:00;;;;;;;12.57;7.53;;;;;;;11.61;100.00;96212.63;4985853;28;20289;-64
2020/12/10 10:04:25;;;;;;;37.33;22.90;;;;;;;11.69;100.00;96205.09;4985645;28;20045;-62
2020/12/10 10:06:51;;;;;;;12.25;7.55;;;;;;;11.42;100.00;96151.22;4985481;28;20033;-63
2020/12/10 10:09:16;;;;;;;21.80;12.57;;;;;;;11.77;100.00;96203.91;4985701;28;20434;-62
2020/12/10 10:11:44;;;;;;;15.90;8.02;;;;;;;11.70;100.00;96187.25;4985333;28;20069;-63
2020/12/10 10:14:10;;;;;;;19.27;10.68;;;;;;;11.66;100.00;96192.03;4983619;28;20037;-65
2020/12/10 10:16:35;;;;;;;19.42;10.77;;;;;;;11.67;100.00;96197.19;4985039;28;20042;-63
2020/12/10 10:19:01;;;;;;;28.95;20.88;;;;;;;11.70;100.00;96192.81;4985747;28;20038;-63
2020/12/10 10:21:28;;;;;;;25.67;18.85;;;;;;;11.67;100.00;96188.06;4985119;28;20054;-63
2020/12/10 10:23:54;;;;;;;11.10;8.55;;;;;;;11.30;100.00;96138.53;4984509;28;20069;-63
2020/12/10 10:26:20;;;;;;;19.08;12.80;;;;;;;11.53;100.00;96190.81;4984980;28;20057;-63
2020/12/10 10:28:47;;;;;;;8.73;4.65;;;;;;;11.24;100.00;96125.50;4983418;28;20066;-60
2020/12/10 10:31:13;;;;;;;15.90;11.38;;;;;;;11.60;100.00;96183.28;4985299;28;20109;-59
2020/12/10 10:33:38;;;;;;;14.65;8.15;;;;;;;11.54;100.00;96173.00;4985685;28;20047;-59
2020/12/10 10:36:04;;;;;;;10.95;7.90;;;;;;;11.53;100.00;96176.94;4985433;28;20481;-62
2020/12/10 10:38:30;;;;;;;11.70;7.63;;;;;;;11.52;100.00;96175.38;4983396;28;20034;-61
2020/12/10 10:40:55;;;;;;;10.40;7.20;;;;;;;11.52;100.00;96167.81;4984396;28;20034;-62
2020/12/10 10:43:21;;;;;;;11.77;9.80;;;;;;;11.44;100.00;96157.16;4998558;28;20504;-60
2020/12/10 10:45:46;;;;;;;11.20;8.23;;;;;;;11.58;100.00;96168.22;4982985;28;20073;-64
2020/12/10 10:48:11;;;;;;;7.95;5.30;;;;;;;11.59;100.00;96164.25;4985445;28;20416;-63
2020/12/10 10:50:37;;;;;;;11.18;7.88;;;;;;;11.52;100.00;96165.06;4985630;28;20041;-63
2020/12/10 10:53:02;;;;;;;8.00;5.65;;;;;;;11.39;100.00;96152.00;4983608;28;20042;-63
2020/12/10 10:55:28;;;;;;;23.30;14.30;;;;;;;11.38;100.00;96158.75;4985024;28;20085;-63
2020/12/10 10:57:53;;;;;;;41.40;23.80;;;;;;;11.53;100.00;96161.13;4984937;28;20092;-63
2020/12/10 11:00:19;;;;;;;23.50;15.63;;;;;;;11.47;100.00;96159.94;4986240;28;20030;-61
2020/12/10 11:02:45;;;;;;;19.48;12.43;;;;;;;11.54;100.00;96156.38;4988293;28;20058;-59
2020/12/10 11:05:10;;;;;;;9.88;6.80;;;;;;;11.56;100.00;96153.97;4987950;28;20038;-61
2020/12/10 11:07:36;;;;;;;9.00;5.28;;;;;;;11.35;100.00;96120.72;4988025;28;20117;-58
2020/12/10 11:10:03;;;;;;;10.60;7.15;;;;;;;11.51;100.00;96132.19;4983316;28;20402;-59
2020/12/10 11:12:29;;;;;;;17.27;12.38;;;;;;;11.35;100.00;96098.56;4988307;28;20128;-62
2020/12/10 11:14:54;;;;;;;21.58;14.13;;;;;;;11.75;100.00;96140.50;4984624;28;20085;-61
2020/12/10 11:17:20;;;;;;;125.32;71.13;;;;;;;11.77;100.00;96137.31;4981461;28;20494;-61